Time;durP1;ratioP1;P1;durP2;ratioP2;P2;SDS_P1;SDS_P2;PMS_P1;PMS_P2;Temp;Humidity;BMP_temperature;BMP_pressure;BME280_temperature;BME280_humidity;BME280_pressure;Samples;Min_cycle;Max_cycle;Signal;HPM_P1;HPM_P2
2022/07/02 00:01:10;;;;;;;10.45;9.55;;;;;;;;;;5012373;28;20042;-78
2022/07/02 00:03:37;;;;;;;11.05;9.70;;;;;;;;;;5012664;28;20040;-79
2022/07/02 00:06:04;;;;;;;11.40;10.40;;;;;;;;;;5011303;28;20424;-79
2022/07/02 00:08:31;;;;;;;11.82;10.63;;;;;;;;;;5018154;28;20095;-79
2022/07/02 00:10:59;;;;;;;11.75;10.65;;;;;;;;;;5032149;28;20388;-79
2022/07/02 00:13:26;;;;;;;12.52;11.23;;;;;;;;;;5032138;28;20025;-78
2022/07/02 00:15:52;;;;;;;11.55;10.52;;;;;;;;;;5014681;28;20048;-79
2022/07/02 00:18:19;;;;;;;11.95;10.57;;;;;;;;;;5032159;28;20064;-79
2022/07/02 00:20:46;;;;;;;12.15;10.95;;;;;;;;;;5032256;28;20029;-78
2022/07/02 00:23:12;;;;;;;13.73;10.50;;;;;;;;;;5032104;28;20022;-79
2022/07/02 00:25:44;;;;;;;11.57;10.50;;;;;;;;;;5032239;28;20036;-79
2022/07/02 00:28:11;;;;;;;13.55;10.43;;;;;;;;;;5031865;28;20048;-79
2022/07/02 00:30:42;;;;;;;12.05;10.82;;;;;;;;;;5032117;28;20083;-78
2022/07/02 00:33:10;;;;;;;13.00;11.70;;;;;;;;;;5031955;28;20025;-79
2022/07/02 00:35:36;;;;;;;11.77;10.57;;;;;;;;;;5014133;28;20134;-78
2022/07/02 00:38:02;;;;;;;10.88;9.95;;;;;;;;;;5031800;28;20030;-79
2022/07/02 00:40:30;;;;;;;11.30;10.20;;;;;;;;;;5031980;28;20511;-79
2022/07/02 00:42:57;;;;;;;11.60;10.40;;;;;;;;;;5032023;28;20057;-78
2022/07/02 00:45:25;;;;;;;12.02;10.82;;;;;;;;;;5014263;28;20032;-79
2022/07/02 00:47:51;;;;;;;11.18;10.07;;;;;;;;;;5031837;28;20036;-78
2022/07/02 00:50:18;;;;;;;11.80;10.77;;;;;;;;;;5031934;28;20027;-78
2022/07/02 00:52:44;;;;;;;14.15;11.80;;;;;;;;;;5031973;28;20040;-78
2022/07/02 00:55:10;;;;;;;12.23;11.13;;;;;;;;;;5031754;28;20045;-79
2022/07/02 00:57:36;;;;;;;12.80;11.32;;;;;;;;;;5031956;28;20022;-79
2022/07/02 01:00:03;;;;;;;12.82;11.52;;;;;;;;;;5031925;28;20032;-78
2022/07/02 01:02:31;;;;;;;12.07;10.32;;;;;;;;;;5018015;28;20175;-78
2022/07/02 01:04:58;;;;;;;13.23;11.93;;;;;;;;;;5035511;28;20029;-79
2022/07/02 01:07:24;;;;;;;13.05;11.85;;;;;;;;;;5035306;28;20047;-79
2022/07/02 01:12:36;;;;;;;12.65;11.45;;;;;;;;;;5035684;28;20515;-78
2022/07/02 01:15:03;;;;;;;11.35;10.25;;;;;;;;;;5035220;28;20354;-79
2022/07/02 01:17:30;;;;;;;12.93;10.85;;;;;;;;;;5035280;28;20071;-79
2022/07/02 01:19:56;;;;;;;11.45;10.45;;;;;;;;;;5001235;28;20049;-78
2022/07/02 01:22:23;;;;;;;11.75;10.65;;;;;;;;;;5035348;28;20021;-79
2022/07/02 01:24:50;;;;;;;11.13;10.23;;;;;;;;;;5017315;28;20358;-79
2022/07/02 01:27:17;;;;;;;12.20;10.70;;;;;;;;;;5035154;28;20480;-79
2022/07/02 01:29:44;;;;;;;13.25;10.02;;;;;;;;;;5035062;28;20105;-79
2022/07/02 01:32:10;;;;;;;11.40;10.30;;;;;;;;;;5017164;28;20096;-79
2022/07/02 01:34:38;;;;;;;12.00;11.00;;;;;;;;;;5034843;28;20035;-79
2022/07/02 01:37:07;;;;;;;11.07;10.00;;;;;;;;;;5034844;28;20028;-78
2022/07/02 01:39:33;;;;;;;11.82;10.88;;;;;;;;;;5034784;28;20037;-78
2022/07/02 01:41:59;;;;;;;13.50;12.30;;;;;;;;;;5034838;28;20025;-78
2022/07/02 01:44:25;;;;;;;12.52;11.43;;;;;;;;;;5034881;28;20032;-78
2022/07/02 01:46:52;;;;;;;11.93;10.77;;;;;;;;;;5034533;28;20400;-79
2022/07/02 01:49:18;;;;;;;12.77;11.63;;;;;;;;;;5034623;28;20037;-79
2022/07/02 01:51:44;;;;;;;14.43;12.93;;;;;;;;;;5034616;28;20087;-79
2022/07/02 01:54:11;;;;;;;12.93;11.63;;;;;;;;;;5016764;28;20026;-78
2022/07/02 01:56:37;;;;;;;12.32;11.13;;;;;;;;;;5034594;28;20029;-78
2022/07/02 01:59:04;;;;;;;11.82;10.88;;;;;;;;;;5016473;28;20461;-79
2022/07/02 02:01:30;;;;;;;14.07;12.77;;;;;;;;;;5034523;28;20091;-79
2022/07/02 02:03:56;;;;;;;12.32;11.13;;;;;;;;;;5034297;28;20029;-79
2022/07/02 02:06:22;;;;;;;13.70;12.30;;;;;;;;;;5034514;28;20053;-79
2022/07/02 02:08:50;;;;;;;15.13;11.52;;;;;;;;;;5016594;28;20064;-79
2022/07/02 02:11:16;;;;;;;13.10;11.93;;;;;;;;;;5016195;28;20536;-79
2022/07/02 02:13:42;;;;;;;12.27;11.18;;;;;;;;;;5034268;28;20029;-79
2022/07/02 02:16:08;;;;;;;12.30;11.13;;;;;;;;;;5034115;28;20459;-79
2022/07/02 02:18:34;;;;;;;12.50;11.50;;;;;;;;;;5016221;28;20033;-79
2022/07/02 02:21:00;;;;;;;11.55;10.65;;;;;;;;;;5034110;28;20036;-79
2022/07/02 02:23:26;;;;;;;11.32;10.43;;;;;;;;;;5034096;28;20163;-79
2022/07/02 02:25:52;;;;;;;13.10;11.90;;;;;;;;;;5034008;28;20033;-79
2022/07/02 02:28:19;;;;;;;12.77;11.68;;;;;;;;;;5033719;28;20029;-79
2022/07/02 02:30:45;;;;;;;12.70;11.48;;;;;;;;;;5033891;28;20492;-78
2022/07/02 02:33:11;;;;;;;13.15;11.95;;;;;;;;;;5033718;28;20108;-78
2022/07/02 02:35:37;;;;;;;12.25;11.25;;;;;;;;;;5033846;28;20033;-78
2022/07/02 02:38:03;;;;;;;14.63;13.23;;;;;;;;;;5016064;28;20032;-78
2022/07/02 02:40:30;;;;;;;12.73;11.50;;;;;;;;;;5033619;28;20041;-78
2022/07/02 02:42:57;;;;;;;13.13;11.88;;;;;;;;;;5033703;28;20487;-78
2022/07/02 02:45:23;;;;;;;13.82;12.52;;;;;;;;;;5016111;28;20137;-78
2022/07/02 02:47:49;;;;;;;14.18;12.70;;;;;;;;;;5033445;28;20097;-78
2022/07/02 02:50:15;;;;;;;13.38;12.18;;;;;;;;;;5015880;28;20037;-78
2022/07/02 02:52:41;;;;;;;13.20;12.00;;;;;;;;;;5015946;28;20137;-78
2022/07/02 02:55:08;;;;;;;13.10;11.90;;;;;;;;;;5033559;28;20029;-78
2022/07/02 02:57:34;;;;;;;12.40;11.27;;;;;;;;;;5033457;28;20025;-78
2022/07/02 03:00:00;;;;;;;12.38;11.10;;;;;;;;;;5015685;28;20384;-78
2022/07/02 03:02:26;;;;;;;12.30;11.20;;;;;;;;;;5033084;28;20048;-78
2022/07/02 03:04:52;;;;;;;12.27;11.20;;;;;;;;;;5033302;28;20029;-78
2022/07/02 03:07:18;;;;;;;12.45;11.25;;;;;;;;;;5033072;28;20025;-78
2022/07/02 03:09:45;;;;;;;12.73;11.43;;;;;;;;;;5017188;28;20052;-78
2022/07/02 03:12:11;;;;;;;12.75;11.55;;;;;;;;;;4996085;28;20037;-78
2022/07/02 03:14:38;;;;;;;14.38;13.00;;;;;;;;;;5013177;28;20034;-78
2022/07/02 03:17:04;;;;;;;20.10;13.43;;;;;;;;;;4995825;28;20116;-78
2022/07/02 03:19:30;;;;;;;16.50;14.85;;;;;;;;;;5013127;28;20022;-78
2022/07/02 03:21:56;;;;;;;14.50;13.10;;;;;;;;;;4995998;28;20536;-79
2022/07/02 03:24:23;;;;;;;12.98;11.77;;;;;;;;;;5012575;28;20100;-78
2022/07/02 03:26:49;;;;;;;15.32;13.77;;;;;;;;;;5013187;28;20132;-78
2022/07/02 03:29:16;;;;;;;13.50;12.20;;;;;;;;;;5012943;28;20048;-78
2022/07/02 03:31:42;;;;;;;14.23;12.73;;;;;;;;;;5012924;28;20021;-78
2022/07/02 03:34:08;;;;;;;12.23;11.10;;;;;;;;;;4995597;28;20056;-78
2022/07/02 03:36:34;;;;;;;13.90;12.73;;;;;;;;;;4995229;28;20481;-79
2022/07/02 03:39:00;;;;;;;16.92;15.27;;;;;;;;;;4995401;28;20034;-78
2022/07/02 03:41:27;;;;;;;14.55;13.10;;;;;;;;;;5012803;28;20025;-79
2022/07/02 03:43:53;;;;;;;13.90;12.43;;;;;;;;;;4995435;28;20496;-78
2022/07/02 03:46:19;;;;;;;14.70;13.15;;;;;;;;;;5012933;28;20061;-78
2022/07/02 03:48:45;;;;;;;14.57;13.02;;;;;;;;;;5012647;28;20038;-78
2022/07/02 03:51:11;;;;;;;18.33;12.55;;;;;;;;;;5012969;28;20030;-78
2022/07/02 03:53:37;;;;;;;14.15;12.75;;;;;;;;;;5012637;28;20022;-78
2022/07/02 03:56:04;;;;;;;14.23;12.63;;;;;;;;;;5012886;28;20080;-78
2022/07/02 03:58:33;;;;;;;13.68;12.38;;;;;;;;;;5012668;28;20030;-78
2022/07/02 04:00:59;;;;;;;14.05;12.57;;;;;;;;;;5012783;28;20037;-78
2022/07/02 04:03:25;;;;;;;14.45;12.98;;;;;;;;;;5012609;28;20025;-78
2022/07/02 04:05:51;;;;;;;13.98;12.77;;;;;;;;;;5012565;28;20032;-78
2022/07/02 04:08:18;;;;;;;12.95;11.82;;;;;;;;;;5014295;28;20507;-78
2022/07/02 04:10:45;;;;;;;17.45;15.18;;;;;;;;;;4994834;28;20038;-78
2022/07/02 04:13:12;;;;;;;18.33;15.50;;;;;;;;;;4995092;28;20117;-78
2022/07/02 04:15:38;;;;;;;14.25;12.85;;;;;;;;;;4995204;28;20022;-78
2022/07/02 04:18:04;;;;;;;15.23;13.73;;;;;;;;;;5012467;28;20084;-78
2022/07/02 04:20:34;;;;;;;15.43;13.98;;;;;;;;;;4995223;28;20034;-77
2022/07/02 04:23:03;;;;;;;14.73;13.23;;;;;;;;;;4995006;28;20026;-78
2022/07/02 04:25:39;;;;;;;15.77;12.68;;;;;;;;;;4995278;28;20037;-78
2022/07/02 04:28:07;;;;;;;13.93;12.02;;;;;;;;;;4978787;28;20133;-78
2022/07/02 04:30:33;;;;;;;13.77;12.50;;;;;;;;;;4994808;28;20037;-78
2022/07/02 04:33:01;;;;;;;12.77;11.70;;;;;;;;;;4994914;28;20037;-77
2022/07/02 04:35:27;;;;;;;18.23;16.35;;;;;;;;;;4997151;28;20045;-77
2022/07/02 04:37:53;;;;;;;29.55;26.52;;;;;;;;;;4998961;28;20022;-77
2022/07/02 04:40:24;;;;;;;15.63;14.07;;;;;;;;;;5016067;28;20073;-78
2022/07/02 04:42:50;;;;;;;16.33;14.45;;;;;;;;;;4998021;28;20038;-78
2022/07/02 04:45:16;;;;;;;16.35;13.45;;;;;;;;;;5016175;28;20041;-78
2022/07/02 04:47:43;;;;;;;16.30;13.35;;;;;;;;;;5015886;28;20400;-77
2022/07/02 04:50:10;;;;;;;16.92;15.23;;;;;;;;;;4998731;28;20038;-78
2022/07/02 04:52:37;;;;;;;14.43;12.57;;;;;;;;;;4998340;28;20160;-78
2022/07/02 04:55:04;;;;;;;13.52;12.13;;;;;;;;;;4998642;28;20037;-77
2022/07/02 04:57:31;;;;;;;14.82;13.32;;;;;;;;;;5015765;28;20465;-78
2022/07/02 04:59:59;;;;;;;13.95;12.55;;;;;;;;;;5015938;28;20041;-78
2022/07/02 05:02:26;;;;;;;14.25;12.73;;;;;;;;;;5015870;28;20032;-78
2022/07/02 05:04:52;;;;;;;12.18;10.95;;;;;;;;;;4998329;28;20034;-79
2022/07/02 05:07:18;;;;;;;12.68;11.57;;;;;;;;;;5015635;28;20022;-79
2022/07/02 05:09:44;;;;;;;12.77;11.57;;;;;;;;;;5015360;28;20057;-78
2022/07/02 05:12:10;;;;;;;12.60;11.25;;;;;;;;;;5015579;28;20096;-80
2022/07/02 05:14:38;;;;;;;14.65;12.98;;;;;;;;;;5015484;28;20026;-78
2022/07/02 05:17:04;;;;;;;11.60;10.63;;;;;;;;;;5015389;28;20065;-78
2022/07/02 05:19:30;;;;;;;11.25;10.25;;;;;;;;;;5015223;28;20073;-79
2022/07/02 05:21:56;;;;;;;16.88;11.05;;;;;;;;;;5015188;28;20025;-78
2022/07/02 05:24:22;;;;;;;11.90;10.82;;;;;;;;;;5015253;28;20040;-78
2022/07/02 05:26:48;;;;;;;12.85;11.55;;;;;;;;;;5015081;28;20428;-78
2022/07/02 05:29:15;;;;;;;12.15;11.05;;;;;;;;;;5015091;28;20041;-79
2022/07/02 05:31:41;;;;;;;10.85;9.85;;;;;;;;;;5014342;28;20034;-79
2022/07/02 05:34:07;;;;;;;12.43;10.43;;;;;;;;;;5013276;28;20030;-79
2022/07/02 05:36:33;;;;;;;11.23;10.13;;;;;;;;;;5015174;28;20539;-79
2022/07/02 05:38:59;;;;;;;11.25;10.05;;;;;;;;;;5015132;28;20045;-79
2022/07/02 05:41:25;;;;;;;14.90;10.55;;;;;;;;;;5014838;28;20030;-79
2022/07/02 05:43:51;;;;;;;11.25;10.00;;;;;;;;;;5014717;28;20036;-77
2022/07/02 05:46:17;;;;;;;11.23;10.25;;;;;;;;;;5011831;28;20026;-79
2022/07/02 05:48:43;;;;;;;11.63;10.50;;;;;;;;;;5014510;28;20520;-79
2022/07/02 05:51:09;;;;;;;11.27;9.98;;;;;;;;;;5014607;28;20070;-79
2022/07/02 05:53:36;;;;;;;11.70;9.90;;;;;;;;;;5014989;28;20030;-79
2022/07/02 05:56:02;;;;;;;13.52;12.15;;;;;;;;;;5013470;28;20393;-79
2022/07/02 05:58:28;;;;;;;20.92;19.05;;;;;;;;;;5014502;28;20436;-79
2022/07/02 06:00:54;;;;;;;20.23;18.55;;;;;;;;;;5013346;28;20044;-79
2022/07/02 06:03:21;;;;;;;25.60;23.30;;;;;;;;;;5013763;28;20084;-78
2022/07/02 06:08:32;;;;;;;14.48;13.13;;;;;;;;;;5013818;28;20143;-79
2022/07/02 06:10:58;;;;;;;14.52;13.23;;;;;;;;;;5013032;28;20053;-79
2022/07/02 06:13:24;;;;;;;11.23;10.23;;;;;;;;;;5011888;28;20030;-79
2022/07/02 06:15:50;;;;;;;13.82;12.18;;;;;;;;;;5014003;28;20030;-79
2022/07/02 06:18:16;;;;;;;13.05;11.80;;;;;;;;;;4995883;28;20432;-79
2022/07/02 06:20:42;;;;;;;11.77;10.57;;;;;;;;;;5014313;28;20116;-79
2022/07/02 06:23:09;;;;;;;12.60;11.45;;;;;;;;;;5013758;28;20034;-79
2022/07/02 06:25:37;;;;;;;11.25;10.27;;;;;;;;;;5013337;28;20109;-78
2022/07/02 06:28:03;;;;;;;12.60;11.30;;;;;;;;;;5013434;28;20037;-79
2022/07/02 06:30:30;;;;;;;10.77;9.68;;;;;;;;;;5013205;28;20099;-79
2022/07/02 06:32:56;;;;;;;10.75;9.85;;;;;;;;;;5012326;28;20030;-79
2022/07/02 06:35:22;;;;;;;10.82;9.80;;;;;;;;;;5012652;28;20033;-79
2022/07/02 06:37:49;;;;;;;10.18;9.35;;;;;;;;;;5013314;28;20026;-79
2022/07/02 06:40:15;;;;;;;11.00;10.10;;;;;;;;;;5012868;28;20053;-79
2022/07/02 06:42:41;;;;;;;11.55;10.45;;;;;;;;;;5010071;28;20108;-79
2022/07/02 06:45:07;;;;;;;10.73;9.73;;;;;;;;;;5013884;28;20053;-79
2022/07/02 06:47:33;;;;;;;10.02;9.23;;;;;;;;;;5013492;28;20025;-79
2022/07/02 06:50:00;;;;;;;14.40;13.10;;;;;;;;;;5013222;28;20084;-79
2022/07/02 06:52:27;;;;;;;9.60;8.80;;;;;;;;;;5014009;28;20079;-79
2022/07/02 06:54:57;;;;;;;9.73;8.93;;;;;;;;;;5013231;28;20030;-79
2022/07/02 06:57:23;;;;;;;9.50;8.73;;;;;;;;;;5012778;28;20041;-78
2022/07/02 06:59:49;;;;;;;10.13;9.23;;;;;;;;;;5012833;28;20045;-77
2022/07/02 07:02:15;;;;;;;10.50;8.98;;;;;;;;;;5012370;28;20033;-78
2022/07/02 07:04:42;;;;;;;10.18;9.25;;;;;;;;;;5009932;28;20030;-78
2022/07/02 07:07:09;;;;;;;10.25;9.35;;;;;;;;;;5013124;28;20037;-79
2022/07/02 07:09:35;;;;;;;10.10;9.23;;;;;;;;;;4993912;28;20054;-78
2022/07/02 07:12:04;;;;;;;10.68;9.68;;;;;;;;;;4993364;28;20481;-79
2022/07/02 07:14:30;;;;;;;10.60;9.70;;;;;;;;;;5009750;28;20021;-77
2022/07/02 07:16:56;;;;;;;10.10;9.07;;;;;;;;;;4993406;28;20069;-78
2022/07/02 07:19:22;;;;;;;10.40;9.45;;;;;;;;;;5011447;28;20113;-80
2022/07/02 07:21:48;;;;;;;10.15;9.13;;;;;;;;;;5012737;28;20442;-79
2022/07/02 07:24:15;;;;;;;10.40;9.40;;;;;;;;;;5013036;28;20108;-78
2022/07/02 07:26:41;;;;;;;9.60;8.85;;;;;;;;;;5011139;28;20113;-78
2022/07/02 07:29:07;;;;;;;10.13;9.20;;;;;;;;;;5011951;28;20560;-79
2022/07/02 07:31:34;;;;;;;9.80;8.80;;;;;;;;;;5012525;28;20026;-78
2022/07/02 07:34:00;;;;;;;9.82;8.90;;;;;;;;;;5011689;28;20797;-78
2022/07/02 07:36:29;;;;;;;9.80;8.90;;;;;;;;;;5012270;28;20076;-78
2022/07/02 07:38:56;;;;;;;12.93;9.10;;;;;;;;;;5011859;28;20535;-78
2022/07/02 07:41:23;;;;;;;10.60;9.52;;;;;;;;;;5011646;28;20022;-77
2022/07/02 07:43:49;;;;;;;9.13;8.30;;;;;;;;;;5011498;28;20048;-77
2022/07/02 07:46:16;;;;;;;9.05;8.15;;;;;;;;;;5012803;28;20076;-77
2022/07/02 07:48:42;;;;;;;9.80;8.82;;;;;;;;;;5011838;28;20041;-77
2022/07/02 07:51:08;;;;;;;8.88;7.93;;;;;;;;;;5011819;28;20029;-77
2022/07/02 07:53:34;;;;;;;9.77;8.95;;;;;;;;;;5012045;28;20042;-78
2022/07/02 07:56:00;;;;;;;10.07;9.18;;;;;;;;;;4995236;28;20026;-78
2022/07/02 07:58:26;;;;;;;11.45;9.68;;;;;;;;;;5012198;28;20042;-77
2022/07/02 08:00:53;;;;;;;10.88;9.77;;;;;;;;;;5012357;28;20030;-77
2022/07/02 08:03:19;;;;;;;9.85;9.00;;;;;;;;;;4994905;28;20040;-78
2022/07/02 08:08:30;;;;;;;10.35;9.35;;;;;;;;;;5001252;28;20053;-77
2022/07/02 08:10:56;;;;;;;11.43;10.52;;;;;;;;;;5032379;28;20380;-77
2022/07/02 08:13:22;;;;;;;9.88;8.95;;;;;;;;;;5031839;28;20034;-77
2022/07/02 08:15:49;;;;;;;9.57;8.65;;;;;;;;;;5032523;28;20037;-77
2022/07/02 08:18:15;;;;;;;8.80;7.95;;;;;;;;;;5032373;28;20025;-77
2022/07/02 08:20:41;;;;;;;9.00;8.10;;;;;;;;;;5031993;28;20030;-77
2022/07/02 08:23:07;;;;;;;9.70;8.45;;;;;;;;;;5032255;28;20380;-77
2022/07/02 08:25:33;;;;;;;9.43;8.52;;;;;;;;;;5031875;28;20490;-77
2022/07/02 08:27:59;;;;;;;9.40;8.43;;;;;;;;;;5031512;28;20092;-77
2022/07/02 08:30:25;;;;;;;10.10;9.15;;;;;;;;;;5032187;28;20025;-77
2022/07/02 08:32:51;;;;;;;9.48;8.65;;;;;;;;;;5031889;28;20044;-78
2022/07/02 08:35:18;;;;;;;9.85;8.98;;;;;;;;;;5031892;28;20079;-78
2022/07/02 08:37:44;;;;;;;11.07;9.60;;;;;;;;;;5029728;28;20021;-78
2022/07/02 08:40:11;;;;;;;11.77;10.73;;;;;;;;;;5032229;28;20113;-77
2022/07/02 08:42:40;;;;;;;8.43;7.72;;;;;;;;;;5032019;28;20029;-77
2022/07/02 08:45:07;;;;;;;8.63;7.93;;;;;;;;;;5031740;28;20384;-77
2022/07/02 08:47:33;;;;;;;9.48;8.60;;;;;;;;;;5032110;28;20025;-77
2022/07/02 08:50:00;;;;;;;9.73;8.73;;;;;;;;;;5031645;28;20598;-77
2022/07/02 08:52:27;;;;;;;10.07;9.27;;;;;;;;;;5031500;28;20041;-77
2022/07/02 08:54:54;;;;;;;9.80;8.88;;;;;;;;;;5031752;28;20472;-80
2022/07/02 08:57:21;;;;;;;10.63;9.52;;;;;;;;;;5018476;28;20458;-77
2022/07/02 08:59:47;;;;;;;9.65;8.55;;;;;;;;;;5011422;28;20101;-77
2022/07/02 09:02:14;;;;;;;9.88;8.35;;;;;;;;;;5011828;28;20034;-77
2022/07/02 09:04:42;;;;;;;8.70;7.43;;;;;;;;;;5011424;28;20026;-77
2022/07/02 09:07:09;;;;;;;9.73;8.90;;;;;;;;;;5008465;28;20041;-77
2022/07/02 09:09:36;;;;;;;8.50;7.80;;;;;;;;;;5011945;28;20053;-77
2022/07/02 09:12:03;;;;;;;8.35;7.50;;;;;;;;;;5011359;28;20088;-77
2022/07/02 09:14:32;;;;;;;10.48;7.55;;;;;;;;;;5008469;28;20029;-77
2022/07/02 09:16:58;;;;;;;9.25;8.02;;;;;;;;;;5010950;28;20026;-77
2022/07/02 09:19:26;;;;;;;8.43;7.63;;;;;;;;;;5011567;28;20074;-77
2022/07/02 09:21:52;;;;;;;8.90;7.97;;;;;;;;;;5011423;28;20037;-77
2022/07/02 09:24:37;;;;;;;8.02;7.38;;;;;;;;;;5013495;28;20113;-77
2022/07/02 09:27:05;;;;;;;8.98;8.07;;;;;;;;;;5013593;28;20037;-78
2022/07/02 09:30:03;;;;;;;8.40;7.60;;;;;;;;;;5014343;28;20588;-78
2022/07/02 09:32:36;;;;;;;8.27;7.45;;;;;;;;;;4970496;28;20585;-77
2022/07/02 09:35:02;;;;;;;;;;;;;;;;;;5012857;28;20032;-77
2022/07/02 09:37:29;;;;;;;10.13;8.15;;;;;;;;;;5014896;28;19905;-77
2022/07/02 09:40:02;;;;;;;7.82;7.18;;;;;;;;;;5014575;28;20026;-77
2022/07/02 09:42:32;;;;;;;7.68;6.97;;;;;;;;;;5012666;28;20076;-78
2022/07/02 09:44:59;;;;;;;9.65;6.70;;;;;;;;;;5014304;28;20033;-77
2022/07/02 09:47:50;;;;;;;8.40;7.68;;;;;;;;;;5014774;28;20485;-77
2022/07/02 09:50:17;;;;;;;9.10;7.63;;;;;;;;;;4996903;28;20034;-79
2022/07/02 09:52:54;;;;;;;7.15;6.65;;;;;;;;;;5014535;28;20021;-78
2022/07/02 09:55:20;;;;;;;14.45;12.95;;;;;;;;;;5014537;28;20029;-78
2022/07/02 09:57:52;;;;;;;12.50;10.07;;;;;;;;;;5014665;28;20032;-77
2022/07/02 10:00:18;;;;;;;8.20;7.50;;;;;;;;;;5014255;28;20033;-78
2022/07/02 10:02:44;;;;;;;26.23;18.98;;;;;;;;;;5013752;28;20040;-78
2022/07/02 10:05:10;;;;;;;14.10;12.57;;;;;;;;;;4993622;28;20033;-78
2022/07/02 10:07:36;;;;;;;10.60;9.43;;;;;;;;;;5013231;28;20104;-77
2022/07/02 10:10:04;;;;;;;9.25;8.20;;;;;;;;;;5013339;28;20052;-79
2022/07/02 10:12:30;;;;;;;9.18;6.85;;;;;;;;;;5012982;28;20079;-77
2022/07/02 10:14:57;;;;;;;7.90;7.20;;;;;;;;;;5012261;28;20033;-79
2022/07/02 10:17:24;;;;;;;7.70;7.10;;;;;;;;;;5014306;28;20041;-78
2022/07/02 10:19:52;;;;;;;7.85;6.43;;;;;;;;;;5014461;28;20076;-78
2022/07/02 10:22:18;;;;;;;6.10;5.60;;;;;;;;;;5013935;28;20050;-77
2022/07/02 10:24:46;;;;;;;7.47;6.72;;;;;;;;;;5014411;28;20022;-78
2022/07/02 10:27:12;;;;;;;6.35;5.85;;;;;;;;;;5014250;28;20113;-78
2022/07/02 10:29:38;;;;;;;6.35;5.75;;;;;;;;;;5013862;28;20026;-77
2022/07/02 10:32:23;;;;;;;7.78;7.00;;;;;;;;;;4996423;28;20381;-77
2022/07/02 10:35:01;;;;;;;7.30;6.70;;;;;;;;;;5014181;28;20034;-78
2022/07/02 10:37:27;;;;;;;26.17;23.75;;;;;;;;;;5013877;28;20034;-77
2022/07/02 10:39:59;;;;;;;8.48;7.07;;;;;;;;;;5014100;28;20458;-77
2022/07/02 10:42:35;;;;;;;7.25;6.55;;;;;;;;;;5014179;28;20037;-78
2022/07/02 10:45:08;;;;;;;6.32;5.82;;;;;;;;;;5013476;28;20026;-78
2022/07/02 10:47:34;;;;;;;5.15;4.75;;;;;;;;;;5013907;28;20080;-78
2022/07/02 10:50:00;;;;;;;7.10;6.57;;;;;;;;;;5014073;28;20095;-78
2022/07/02 10:52:45;;;;;;;6.80;6.20;;;;;;;;;;5013555;28;20108;-78
2022/07/02 10:55:11;;;;;;;8.93;7.97;;;;;;;;;;5013547;28;20488;-77
2022/07/02 10:57:40;;;;;;;9.30;8.48;;;;;;;;;;5013987;28;20032;-77
2022/07/02 11:00:08;;;;;;;7.40;6.72;;;;;;;;;;5013352;28;20497;-77
2022/07/02 11:02:35;;;;;;;7.82;7.03;;;;;;;;;;5013521;28;20389;-79
2022/07/02 11:05:08;;;;;;;6.43;5.82;;;;;;;;;;5013647;28;20105;-78
2022/07/02 11:07:42;;;;;;;6.90;6.38;;;;;;;;;;5013393;28;20075;-77
2022/07/02 11:10:09;;;;;;;6.57;5.95;;;;;;;;;;5013376;28;20088;-77
2022/07/02 11:12:54;;;;;;;6.18;5.57;;;;;;;;;;5013499;28;20029;-77
2022/07/02 11:15:26;;;;;;;6.40;5.80;;;;;;;;;;5012567;28;20037;-78
2022/07/02 11:17:52;;;;;;;6.47;5.90;;;;;;;;;;5013527;28;20535;-78
2022/07/02 11:20:28;;;;;;;6.20;5.70;;;;;;;;;;5013167;28;20030;-77
2022/07/02 11:22:55;;;;;;;6.68;5.45;;;;;;;;;;5013134;28;20040;-78
2022/07/02 11:25:21;;;;;;;7.65;6.65;;;;;;;;;;5013231;28;20133;-79
2022/07/02 11:27:57;;;;;;;7.20;6.60;;;;;;;;;;4995614;28;20045;-78
2022/07/02 11:30:24;;;;;;;5.68;5.28;;;;;;;;;;5012829;28;20152;-78
2022/07/02 11:32:50;;;;;;;6.78;5.97;;;;;;;;;;5013158;28;20388;-77
2022/07/02 11:35:17;;;;;;;7.72;7.03;;;;;;;;;;5013029;28;20025;-79
2022/07/02 11:37:44;;;;;;;5.93;5.43;;;;;;;;;;5012939;28;20025;-77
2022/07/02 11:40:20;;;;;;;8.95;8.25;;;;;;;;;;5013128;28;20473;-78
2022/07/02 11:42:46;;;;;;;7.30;6.65;;;;;;;;;;5013020;28;20519;-77
2022/07/02 11:45:12;;;;;;;6.85;6.22;;;;;;;;;;5012096;28;20026;-78
2022/07/02 11:47:49;;;;;;;9.63;6.75;;;;;;;;;;5012700;28;20084;-77
2022/07/02 11:50:15;;;;;;;56.80;10.40;;;;;;;;;;5012273;28;20084;-78
2022/07/02 11:52:41;;;;;;;23.70;10.98;;;;;;;;;;5012620;28;20446;-79
2022/07/02 11:55:14;;;;;;;46.72;8.52;;;;;;;;;;5013067;28;20033;-78
2022/07/02 11:57:40;;;;;;;13.40;9.02;;;;;;;;;;5011831;28;20057;-77
2022/07/02 12:00:07;;;;;;;12.27;11.07;;;;;;;;;;5007728;28;20105;-77
2022/07/02 12:02:37;;;;;;;13.38;12.00;;;;;;;;;;5012702;28;20026;-82
2022/07/02 12:05:13;;;;;;;11.40;10.43;;;;;;;;;;5013016;28;20076;-83
2022/07/02 12:07:42;;;;;;;14.95;12.32;;;;;;;;;;5011885;28;20424;-78
2022/07/02 12:10:08;;;;;;;14.07;12.57;;;;;;;;;;5046745;28;20080;-81
2022/07/02 12:12:35;;;;;;;14.57;11.07;;;;;;;;;;5052178;28;20761;-85
2022/07/02 12:15:03;;;;;;;15.30;13.50;;;;;;;;;;5034096;28;20033;-80
2022/07/02 12:17:30;;;;;;;12.00;10.90;;;;;;;;;;5051895;28;20025;-81
2022/07/02 12:19:56;;;;;;;10.70;9.55;;;;;;;;;;5052532;28;20083;-77
2022/07/02 12:22:29;;;;;;;9.77;8.63;;;;;;;;;;5051760;28;20025;-78
2022/07/02 12:24:55;;;;;;;8.40;7.70;;;;;;;;;;5052168;28;20124;-78
2022/07/02 12:27:24;;;;;;;8.30;7.55;;;;;;;;;;5052206;28;20025;-78
2022/07/02 12:29:54;;;;;;;8.90;8.18;;;;;;;;;;5051697;28;20434;-78
2022/07/02 12:32:23;;;;;;;10.32;9.50;;;;;;;;;;5051962;28;20104;-78
2022/07/02 12:34:49;;;;;;;9.88;9.10;;;;;;;;;;5052129;28;20476;-77
2022/07/02 12:37:52;;;;;;;11.10;10.20;;;;;;;;;;5051853;28;20029;-80
2022/07/02 12:40:22;;;;;;;35.88;32.47;;;;;;;;;;4952101;29;20027;-79
2022/07/02 12:42:55;;;;;;;18.60;16.67;;;;;;;;;;4951484;29;20054;-78
2022/07/02 12:45:29;;;;;;;19.13;17.25;;;;;;;;;;4952245;29;20114;-79
2022/07/02 12:48:03;;;;;;;9.82;8.93;;;;;;;;;;4980210;28;20041;-78
2022/07/02 12:50:30;;;;;;;14.13;12.75;;;;;;;;;;5051536;28;20044;-78
2022/07/02 12:52:57;;;;;;;11.77;10.45;;;;;;;;;;5047721;28;20400;-78
2022/07/02 12:55:42;;;;;;;11.40;10.50;;;;;;;;;;5030071;28;20034;-79
2022/07/02 12:58:09;;;;;;;12.25;11.32;;;;;;;;;;5033028;28;20026;-80
2022/07/02 13:00:36;;;;;;;15.55;14.15;;;;;;;;;;5033685;28;20040;-80
2022/07/02 13:03:09;;;;;;;12.13;11.10;;;;;;;;;;5033665;28;20080;-77
2022/07/02 13:05:36;;;;;;;12.88;11.60;;;;;;;;;;5033899;28;20029;-79
2022/07/02 13:08:03;;;;;;;13.63;12.32;;;;;;;;;;5033480;28;20048;-78
2022/07/02 13:10:29;;;;;;;12.43;11.35;;;;;;;;;;5012651;28;20138;-78
2022/07/02 13:12:55;;;;;;;12.80;11.55;;;;;;;;;;5015296;28;20505;-79
2022/07/02 13:15:21;;;;;;;12.10;10.88;;;;;;;;;;5015563;28;20117;-78
2022/07/02 13:17:47;;;;;;;136.30;123.30;;;;;;;;;;5014856;28;20061;-78
2022/07/02 13:20:14;;;;;;;14.50;12.98;;;;;;;;;;5015384;28;20547;-80
2022/07/02 13:22:40;;;;;;;12.05;10.85;;;;;;;;;;5015181;28;20026;-79
2022/07/02 13:25:07;;;;;;;13.38;12.18;;;;;;;;;;5015171;28;20030;-78
2022/07/02 13:27:34;;;;;;;11.27;10.27;;;;;;;;;;5014951;28;20030;-78
2022/07/02 13:30:00;;;;;;;11.43;10.25;;;;;;;;;;5015219;28;20026;-79
2022/07/02 13:32:27;;;;;;;10.98;9.95;;;;;;;;;;5014883;28;20537;-78
2022/07/02 13:34:53;;;;;;;11.02;10.02;;;;;;;;;;5015172;28;20107;-77
2022/07/02 13:37:19;;;;;;;11.15;9.93;;;;;;;;;;5015007;28;20370;-78
2022/07/02 13:39:46;;;;;;;10.38;9.35;;;;;;;;;;5014492;28;20026;-77
2022/07/02 13:42:12;;;;;;;9.65;8.50;;;;;;;;;;5014993;28;20022;-78
2022/07/02 13:44:39;;;;;;;10.98;8.90;;;;;;;;;;5014416;28;20512;-78
2022/07/02 13:47:05;;;;;;;9.43;8.43;;;;;;;;;;5014936;28;20080;-79
2022/07/02 13:49:31;;;;;;;10.50;8.90;;;;;;;;;;5014661;28;20046;-81
2022/07/02 13:51:58;;;;;;;9.00;8.13;;;;;;;;;;5014943;28;20462;-79
2022/07/02 13:54:24;;;;;;;9.73;7.97;;;;;;;;;;5014652;28;20030;-79
2022/07/02 13:56:50;;;;;;;8.70;7.80;;;;;;;;;;5014396;28;20366;-79
2022/07/02 13:59:16;;;;;;;8.52;7.78;;;;;;;;;;5014631;28;20057;-78
2022/07/02 14:01:42;;;;;;;9.00;8.13;;;;;;;;;;5014161;28;20040;-78
2022/07/02 14:04:08;;;;;;;8.60;7.80;;;;;;;;;;5013954;28;20029;-78
2022/07/02 14:06:35;;;;;;;8.77;7.65;;;;;;;;;;5014256;28;20472;-80
2022/07/02 14:09:01;;;;;;;9.30;8.32;;;;;;;;;;5013754;28;20060;-78
2022/07/02 14:11:27;;;;;;;10.68;9.70;;;;;;;;;;5014329;28;20029;-78
2022/07/02 14:13:53;;;;;;;8.80;7.82;;;;;;;;;;5013893;28;20077;-79
2022/07/02 14:16:20;;;;;;;9.23;7.32;;;;;;;;;;5014162;28;20057;-78
2022/07/02 14:18:46;;;;;;;7.35;6.68;;;;;;;;;;5013807;28;20030;-81
2022/07/02 14:21:12;;;;;;;9.25;8.27;;;;;;;;;;4996849;28;20029;-81
2022/07/02 14:23:38;;;;;;;10.35;7.57;;;;;;;;;;4996690;28;20071;-79
2022/07/02 14:26:08;;;;;;;8.90;7.53;;;;;;;;;;5014050;28;20088;-78
2022/07/02 14:28:35;;;;;;;8.20;6.80;;;;;;;;;;5014209;28;21040;-78
2022/07/02 14:31:01;;;;;;;7.45;6.70;;;;;;;;;;5013858;28;20037;-81
2022/07/02 14:33:28;;;;;;;8.63;7.68;;;;;;;;;;4996472;28;20029;-78
2022/07/02 14:35:55;;;;;;;8.02;7.25;;;;;;;;;;5000317;28;20038;-78